Time;durP1;ratioP1;P1;durP2;ratioP2;P2;SDS_P1;SDS_P2;PMS_P1;PMS_P2;Temp;Humidity;BMP_temperature;BMP_pressure;BME280_temperature;BME280_humidity;BME280_pressure;Samples;Min_cycle;Max_cycle;Signal;HPM_P1;HPM_P2
2023/07/21 00:01:41;;;;;;;7.82;7.05;;;13.50;99.90;;;;;;5009301;28;20498;-74
2023/07/21 00:04:06;;;;;;;8.60;6.65;;;13.40;99.90;;;;;;5011225;28;20029;-75
2023/07/21 00:06:32;;;;;;;6.90;5.53;;;13.40;99.90;;;;;;5011020;28;20026;-77
2023/07/21 00:08:58;;;;;;;5.68;5.07;;;13.30;99.90;;;;;;5009878;28;20033;-75
2023/07/21 00:11:23;;;;;;;6.88;5.10;;;13.30;99.90;;;;;;5010680;28;20060;-78
2023/07/21 00:13:49;;;;;;;6.05;4.68;;;13.30;99.90;;;;;;5011211;28;20476;-78
2023/07/21 00:16:15;;;;;;;5.95;5.35;;;13.30;99.90;;;;;;5010779;28;20047;-75
2023/07/21 00:18:41;;;;;;;7.07;5.15;;;13.20;99.90;;;;;;5010798;28;20049;-78
2023/07/21 00:21:07;;;;;;;5.95;5.15;;;13.20;99.90;;;;;;5010763;28;20022;-79
2023/07/21 00:23:33;;;;;;;5.70;5.20;;;13.20;99.90;;;;;;5009463;28;20032;-75
2023/07/21 00:26:00;;;;;;;5.57;5.07;;;13.20;99.90;;;;;;5010626;28;20030;-78
2023/07/21 00:28:26;;;;;;;5.43;4.90;;;13.10;99.90;;;;;;5010726;28;20459;-78
2023/07/21 00:30:52;;;;;;;8.00;5.05;;;13.10;99.90;;;;;;4998224;28;20029;-75
2023/07/21 00:33:18;;;;;;;9.00;6.18;;;13.10;99.90;;;;;;5010629;28;20034;-78
2023/07/21 00:35:43;;;;;;;12.15;6.57;;;13.10;99.90;;;;;;5009224;28;20080;-79
2023/07/21 00:38:10;;;;;;;8.13;5.70;;;13.10;99.90;;;;;;5010644;28;20360;-79
2023/07/21 00:40:38;;;;;;;8.82;5.95;;;13.10;99.90;;;;;;5010511;28;20034;-75
2023/07/21 00:43:08;;;;;;;6.28;5.60;;;13.10;99.90;;;;;;5010771;28;20412;-75
2023/07/21 00:45:39;;;;;;;8.85;6.22;;;13.10;99.90;;;;;;5009319;28;20122;-75
2023/07/21 00:48:07;;;;;;;6.15;5.65;;;13.10;99.90;;;;;;5009370;28;20026;-78
2023/07/21 00:50:41;;;;;;;8.13;5.43;;;13.10;99.90;;;;;;5010278;28;20069;-74
2023/07/21 00:53:07;;;;;;;6.60;5.95;;;13.10;99.90;;;;;;5010208;28;20498;-78
2023/07/21 00:55:34;;;;;;;7.80;4.45;;;13.00;99.90;;;;;;4994421;28;20019;-75
2023/07/21 00:58:00;;;;;;;3.83;3.53;;;13.00;99.90;;;;;;4996625;28;20055;-78
2023/07/21 01:00:27;;;;;;;2.70;2.60;;;13.00;99.90;;;;;;5004973;28;20472;-79
2023/07/21 01:02:53;;;;;;;2.50;2.35;;;12.90;99.90;;;;;;5005718;28;20540;-74
2023/07/21 01:05:20;;;;;;;4.07;3.67;;;12.80;99.90;;;;;;5009821;28;20029;-75
2023/07/21 01:07:46;;;;;;;4.70;4.30;;;12.80;99.90;;;;;;5010125;28;20479;-78
2023/07/21 01:10:13;;;;;;;3.97;2.85;;;12.80;99.90;;;;;;5008728;28;20018;-74
2023/07/21 01:12:39;;;;;;;3.83;3.45;;;12.80;99.90;;;;;;4996840;28;20033;-79
2023/07/21 01:15:05;;;;;;;4.47;3.60;;;12.70;99.90;;;;;;5008831;28;20026;-78
2023/07/21 01:17:32;;;;;;;3.88;3.58;;;12.70;99.90;;;;;;5008655;28;20022;-74
2023/07/21 01:20:00;;;;;;;4.15;3.85;;;12.80;99.90;;;;;;5008662;28;20022;-75
2023/07/21 01:22:31;;;;;;;4.65;4.25;;;12.80;99.90;;;;;;5008791;28;20087;-79
2023/07/21 01:24:59;;;;;;;3.78;3.45;;;12.80;99.90;;;;;;5008446;28;20026;-75
2023/07/21 01:27:25;;;;;;;4.50;3.72;;;12.70;99.90;;;;;;5010054;28;20030;-75
2023/07/21 01:29:52;;;;;;;4.57;4.18;;;12.70;99.90;;;;;;4997477;28;20475;-78
2023/07/21 01:32:21;;;;;;;5.10;4.70;;;12.60;99.90;;;;;;5008726;28;20372;-75
2023/07/21 01:34:47;;;;;;;4.57;4.28;;;12.60;99.90;;;;;;5008481;28;20546;-77
2023/07/21 01:37:15;;;;;;;5.78;5.18;;;12.70;99.90;;;;;;5009860;28;20055;-78
2023/07/21 01:39:42;;;;;;;4.55;4.25;;;12.70;99.90;;;;;;5009772;28;20026;-78
2023/07/21 01:42:08;;;;;;;6.57;4.57;;;12.70;99.90;;;;;;5010004;28;20038;-77
2023/07/21 01:44:34;;;;;;;5.65;5.15;;;12.70;99.90;;;;;;5008316;28;20113;-74
2023/07/21 01:47:00;;;;;;;5.20;4.63;;;12.70;99.90;;;;;;5009932;28;20062;-78
2023/07/21 01:49:25;;;;;;;5.78;5.28;;;12.70;99.90;;;;;;5009307;28;20050;-78
2023/07/21 01:51:57;;;;;;;5.10;4.60;;;12.70;99.90;;;;;;5009690;28;20042;-78
2023/07/21 01:54:45;;;;;;;5.22;4.72;;;12.80;99.90;;;;;;5009692;28;20029;-74
2023/07/21 01:57:17;;;;;;;5.10;4.70;;;12.80;99.90;;;;;;5008017;28;20018;-74
2023/07/21 01:59:46;;;;;;;5.60;5.10;;;12.80;99.90;;;;;;5009679;28;20033;-74
2023/07/21 02:02:13;;;;;;;5.63;5.13;;;12.90;99.90;;;;;;5006605;28;20027;-75
2023/07/21 02:04:39;;;;;;;6.07;4.65;;;12.80;99.90;;;;;;5000508;28;20033;-74
2023/07/21 02:07:05;;;;;;;5.60;4.78;;;12.90;99.90;;;;;;5008167;28;20025;-74
2023/07/21 02:09:31;;;;;;;5.07;4.70;;;12.90;99.90;;;;;;5009400;28;20026;-74
2023/07/21 02:11:58;;;;;;;5.40;5.00;;;12.90;99.90;;;;;;5007764;28;20045;-79
2023/07/21 02:14:24;;;;;;;5.97;4.95;;;12.90;99.90;;;;;;5008190;28;20181;-74
2023/07/21 02:16:49;;;;;;;5.97;5.20;;;12.90;99.90;;;;;;5009484;28;20144;-74
2023/07/21 02:19:17;;;;;;;5.43;4.93;;;12.90;99.90;;;;;;5009233;28;20025;-78
2023/07/21 02:21:43;;;;;;;5.63;5.15;;;12.90;99.90;;;;;;5009362;28;20018;-75
2023/07/21 02:24:08;;;;;;;6.45;5.07;;;12.90;99.90;;;;;;5009829;28;20026;-77
2023/07/21 02:26:34;;;;;;;6.63;4.97;;;12.90;99.90;;;;;;5012533;28;20084;-74
2023/07/21 02:29:00;;;;;;;5.75;5.25;;;12.90;99.90;;;;;;5012333;28;20053;-78
2023/07/21 02:31:25;;;;;;;6.03;5.38;;;13.00;99.90;;;;;;5012572;28;20092;-74
2023/07/21 02:33:51;;;;;;;6.57;5.60;;;12.90;99.90;;;;;;5012286;28;20025;-78
2023/07/21 02:36:16;;;;;;;6.68;5.82;;;12.90;99.90;;;;;;5012663;28;20030;-74
2023/07/21 02:38:42;;;;;;;6.85;6.15;;;12.90;99.90;;;;;;5012325;28;20078;-74
2023/07/21 02:41:09;;;;;;;10.05;6.32;;;12.90;99.90;;;;;;5012037;28;20463;-74
2023/07/21 02:43:35;;;;;;;7.13;6.47;;;12.90;99.90;;;;;;5012173;28;20053;-75
2023/07/21 02:46:01;;;;;;;7.03;6.32;;;12.80;99.90;;;;;;5012494;28;20054;-79
2023/07/21 02:48:26;;;;;;;8.98;6.95;;;12.80;99.90;;;;;;5012073;28;20022;-79
2023/07/21 02:50:55;;;;;;;7.80;7.00;;;12.80;99.90;;;;;;5012038;28;20030;-74
2023/07/21 02:53:21;;;;;;;7.63;6.93;;;12.80;99.90;;;;;;5012124;28;20376;-77
2023/07/21 02:55:47;;;;;;;6.85;6.07;;;12.90;99.90;;;;;;5011055;28;20036;-79
2023/07/21 02:58:15;;;;;;;7.05;6.40;;;12.90;99.90;;;;;;5010868;28;20083;-74
2023/07/21 03:00:41;;;;;;;14.73;6.75;;;13.00;99.90;;;;;;5027285;28;20022;-74
2023/07/21 03:03:08;;;;;;;7.78;5.95;;;13.00;99.90;;;;;;5001955;28;20066;-74
2023/07/21 03:05:35;;;;;;;8.05;6.38;;;13.00;99.90;;;;;;5010366;28;20026;-74
2023/07/21 03:08:02;;;;;;;7.72;6.63;;;13.10;99.90;;;;;;5010681;28;20022;-78
2023/07/21 03:10:27;;;;;;;8.18;5.75;;;13.10;99.90;;;;;;5010550;28;20026;-79
2023/07/21 03:12:53;;;;;;;6.78;6.00;;;13.20;99.90;;;;;;5010736;28;20034;-74
2023/07/21 03:15:19;;;;;;;6.57;5.88;;;13.20;99.90;;;;;;5011960;28;20022;-78
2023/07/21 03:17:44;;;;;;;11.13;5.78;;;13.30;99.90;;;;;;5011599;28;20538;-78
2023/07/21 03:20:12;;;;;;;7.72;5.97;;;13.30;99.90;;;;;;5011875;28;20445;-74
2023/07/21 03:22:40;;;;;;;7.65;5.65;;;13.40;99.90;;;;;;5011969;28;20033;-74
2023/07/21 03:25:07;;;;;;;9.02;7.25;;;13.40;99.90;;;;;;5010114;28;20022;-79
2023/07/21 03:27:33;;;;;;;6.95;6.13;;;13.60;99.90;;;;;;5010292;28;20439;-74
2023/07/21 03:29:59;;;;;;;6.85;5.80;;;13.50;99.90;;;;;;5011411;28;20048;-79
2023/07/21 03:32:24;;;;;;;8.13;6.82;;;13.60;99.90;;;;;;5011728;28;20034;-78
2023/07/21 03:34:52;;;;;;;12.10;6.18;;;13.50;99.90;;;;;;5010936;28;20029;-74
2023/07/21 03:37:18;;;;;;;10.50;8.07;;;13.50;99.90;;;;;;5011459;28;20101;-74
2023/07/21 03:39:44;;;;;;;8.65;7.65;;;13.40;99.90;;;;;;5011093;28;20440;-74
2023/07/21 03:42:10;;;;;;;7.13;6.43;;;13.40;99.90;;;;;;5011461;28;20031;-78
2023/07/21 03:44:36;;;;;;;8.55;6.65;;;13.40;99.90;;;;;;5010038;28;20380;-75
2023/07/21 03:47:01;;;;;;;9.85;6.80;;;13.50;99.90;;;;;;5011278;28;20496;-79
2023/07/21 03:49:27;;;;;;;7.50;6.80;;;13.50;99.90;;;;;;5009937;28;20049;-78
2023/07/21 03:51:53;;;;;;;9.65;6.55;;;13.60;99.90;;;;;;5011719;28;20034;-78
2023/07/21 03:54:18;;;;;;;8.70;7.80;;;13.70;99.90;;;;;;5010171;28;20025;-79
2023/07/21 03:56:44;;;;;;;9.57;7.50;;;13.70;99.90;;;;;;5011524;28;20029;-78
2023/07/21 03:59:09;;;;;;;7.93;7.13;;;13.80;99.90;;;;;;5009996;28;20014;-78
2023/07/21 04:01:35;;;;;;;9.27;7.43;;;13.90;99.90;;;;;;5011319;28;20018;-74
2023/07/21 04:04:00;;;;;;;8.05;6.60;;;14.00;99.90;;;;;;4999017;28;20379;-74
2023/07/21 04:06:26;;;;;;;9.30;5.50;;;14.00;99.90;;;;;;5011239;28;20021;-79
2023/07/21 04:08:53;;;;;;;8.43;7.32;;;14.00;99.90;;;;;;5009592;28;20014;-75
2023/07/21 04:11:19;;;;;;;10.52;7.45;;;14.00;99.90;;;;;;5009460;28;20143;-75
2023/07/21 04:13:45;;;;;;;9.60;7.03;;;13.90;99.90;;;;;;5011097;28;20117;-79
2023/07/21 04:16:11;;;;;;;13.10;7.70;;;13.90;99.90;;;;;;5009643;28;20096;-78
2023/07/21 04:18:38;;;;;;;8.23;6.32;;;13.90;99.90;;;;;;5010914;28;20022;-75
2023/07/21 04:21:04;;;;;;;8.38;7.20;;;13.90;99.90;;;;;;5026293;28;20117;-74
2023/07/21 04:23:29;;;;;;;10.02;7.43;;;14.00;99.90;;;;;;5010474;28;20105;-75
2023/07/21 04:25:55;;;;;;;8.27;7.15;;;14.10;99.90;;;;;;5010952;28;20030;-78
2023/07/21 04:28:21;;;;;;;10.70;7.53;;;14.20;99.90;;;;;;5009274;28;20372;-79
2023/07/21 04:30:47;;;;;;;9.63;7.10;;;14.30;99.90;;;;;;5010888;28;20104;-78
2023/07/21 04:33:13;;;;;;;8.95;7.38;;;14.50;99.90;;;;;;5009394;28;20064;-75
2023/07/21 04:35:48;;;;;;;15.60;8.35;;;14.50;99.90;;;;;;5009620;28;20037;-75
2023/07/21 04:38:14;;;;;;;12.07;8.30;;;14.70;99.90;;;;;;5010526;28;20105;-75
2023/07/21 04:40:46;;;;;;;8.90;8.00;;;14.70;99.90;;;;;;5010594;28;20032;-79
2023/07/21 04:43:12;;;;;;;10.35;7.45;;;14.90;99.90;;;;;;5009005;28;20018;-75
2023/07/21 04:45:42;;;;;;;8.20;7.40;;;14.90;99.90;;;;;;5010784;28;20018;-79
2023/07/21 04:48:08;;;;;;;8.85;7.60;;;15.00;99.90;;;;;;5010452;28;20038;-78
2023/07/21 04:50:33;;;;;;;10.60;7.53;;;15.10;99.90;;;;;;5004325;28;20376;-78
2023/07/21 04:53:01;;;;;;;12.07;8.88;;;15.20;99.90;;;;;;5008646;28;21745;-75
2023/07/21 04:55:27;;;;;;;13.15;9.40;;;15.30;99.90;;;;;;5010557;28;20025;-78
2023/07/21 04:57:53;;;;;;;11.82;8.40;;;15.40;99.90;;;;;;5008873;28;20029;-75
2023/07/21 05:00:19;;;;;;;10.27;8.50;;;15.50;99.90;;;;;;5010533;28;20032;-79
2023/07/21 05:02:44;;;;;;;12.23;9.77;;;15.50;99.90;;;;;;5001899;28;20430;-75
2023/07/21 05:05:10;;;;;;;10.45;9.18;;;15.60;99.90;;;;;;5009614;28;20102;-79
2023/07/21 05:07:36;;;;;;;10.80;9.48;;;15.70;99.90;;;;;;5010231;28;20522;-79
2023/07/21 05:10:03;;;;;;;18.63;11.10;;;15.80;99.90;;;;;;5010054;28;20029;-75
2023/07/21 05:12:29;;;;;;;20.75;11.55;;;15.90;99.90;;;;;;5010006;28;20118;-75
2023/07/21 05:14:54;;;;;;;19.67;10.88;;;15.90;99.90;;;;;;5009695;28;20087;-79
2023/07/21 05:17:20;;;;;;;20.30;11.10;;;16.00;99.90;;;;;;5007540;28;20022;-76
2023/07/21 05:19:46;;;;;;;19.70;11.68;;;16.10;99.90;;;;;;5008499;28;20105;-76
2023/07/21 05:22:13;;;;;;;17.17;11.05;;;16.20;99.90;;;;;;5002255;28;20022;-76
2023/07/21 05:24:39;;;;;;;14.98;10.48;;;16.20;99.90;;;;;;4998811;28;20030;-76
2023/07/21 05:27:05;;;;;;;14.70;10.63;;;16.30;99.90;;;;;;5006418;28;20032;-76
2023/07/21 05:29:33;;;;;;;18.35;11.45;;;16.40;99.90;;;;;;5005912;28;20479;-76
2023/07/21 05:31:58;;;;;;;13.05;9.65;;;16.50;99.90;;;;;;5003942;28;20027;-76
2023/07/21 05:34:24;;;;;;;19.58;11.73;;;16.60;99.90;;;;;;5001726;28;20080;-76
2023/07/21 05:36:49;;;;;;;15.32;10.80;;;16.60;99.90;;;;;;4989442;28;20052;-80
2023/07/21 05:39:15;;;;;;;13.07;10.52;;;16.70;99.90;;;;;;5002520;28;20014;-79
2023/07/21 05:41:41;;;;;;;17.20;11.07;;;16.60;99.90;;;;;;5009767;28;20471;-76
2023/07/21 05:44:06;;;;;;;14.18;10.93;;;16.60;99.90;;;;;;5007871;28;20487;-76
2023/07/21 05:46:32;;;;;;;18.20;11.25;;;16.60;99.90;;;;;;5002184;28;20027;-80
2023/07/21 05:48:58;;;;;;;20.15;11.10;;;16.70;99.90;;;;;;5005998;28;20042;-80
2023/07/21 05:51:23;;;;;;;15.75;9.98;;;16.70;99.90;;;;;;5008180;28;20030;-76
2023/07/21 05:53:49;;;;;;;16.33;10.63;;;16.80;99.90;;;;;;5003417;28;20030;-76
2023/07/21 05:56:15;;;;;;;20.10;11.80;;;16.80;99.90;;;;;;4999858;28;20068;-80
2023/07/21 05:58:41;;;;;;;19.77;12.35;;;16.80;99.90;;;;;;5006273;28;20406;-76
2023/07/21 06:01:10;;;;;;;20.70;11.48;;;16.80;99.90;;;;;;5004646;28;20030;-76
2023/07/21 06:03:37;;;;;;;16.15;11.02;;;16.80;99.90;;;;;;5005499;28;20048;-76
2023/07/21 06:06:04;;;;;;;15.43;11.77;;;16.80;99.90;;;;;;5011750;28;20154;-76
2023/07/21 06:08:30;;;;;;;13.43;9.95;;;16.80;99.90;;;;;;5010950;28;20030;-80
2023/07/21 06:10:57;;;;;;;11.90;9.88;;;16.70;99.90;;;;;;5009886;28;20033;-76
2023/07/21 06:13:23;;;;;;;15.57;10.00;;;16.70;99.90;;;;;;5004994;28;20807;-76
2023/07/21 06:15:49;;;;;;;13.50;9.98;;;16.70;99.90;;;;;;5005617;28;20022;-79
2023/07/21 06:18:15;;;;;;;14.73;10.95;;;16.60;99.90;;;;;;5009310;28;20472;-79
2023/07/21 06:20:40;;;;;;;17.95;10.68;;;16.50;99.90;;;;;;5009659;28;20083;-76
2023/07/21 06:23:06;;;;;;;15.95;10.35;;;16.50;99.90;;;;;;5007603;28;20033;-80
2023/07/21 06:25:32;;;;;;;11.82;9.73;;;16.50;99.90;;;;;;5007039;28;20022;-80
2023/07/21 06:27:58;;;;;;;15.77;9.95;;;16.50;99.90;;;;;;5007562;28;20025;-80
2023/07/21 06:30:23;;;;;;;11.55;9.15;;;16.40;99.90;;;;;;5007411;28;20048;-80
2023/07/21 06:32:49;;;;;;;12.93;9.13;;;16.30;99.90;;;;;;5007143;28;20045;-76
2023/07/21 06:35:14;;;;;;;12.45;10.20;;;16.30;99.90;;;;;;5008015;28;20030;-80
2023/07/21 06:37:40;;;;;;;15.48;9.43;;;16.30;99.90;;;;;;5007285;28;20025;-80
2023/07/21 06:40:09;;;;;;;17.25;9.73;;;16.30;99.90;;;;;;5008837;28;20077;-80
2023/07/21 06:42:35;;;;;;;12.90;9.75;;;16.30;99.90;;;;;;5010344;28;20022;-79
2023/07/21 06:45:01;;;;;;;16.20;10.30;;;16.30;99.90;;;;;;5009167;28;20034;-79
2023/07/21 06:47:27;;;;;;;15.75;10.73;;;16.30;99.90;;;;;;5010727;28;20471;-80
2023/07/21 06:49:52;;;;;;;17.80;11.02;;;16.30;99.90;;;;;;5011995;28;20050;-79
2023/07/21 06:52:18;;;;;;;23.13;11.55;;;16.20;99.90;;;;;;5012414;28;20066;-76
2023/07/21 06:54:44;;;;;;;16.60;10.68;;;16.20;99.90;;;;;;5011896;28;20030;-76
2023/07/21 06:57:10;;;;;;;14.05;9.40;;;16.10;99.90;;;;;;5012435;28;20033;-79
2023/07/21 06:59:36;;;;;;;14.60;10.65;;;16.10;99.90;;;;;;5010573;28;20022;-80
2023/07/21 07:02:02;;;;;;;17.05;10.95;;;16.10;99.90;;;;;;5011012;28;20390;-76
2023/07/21 07:04:28;;;;;;;16.58;10.52;;;16.10;99.90;;;;;;5012131;28;20071;-77
2023/07/21 07:06:55;;;;;;;18.58;10.85;;;16.10;99.90;;;;;;5010928;28;20032;-79
2023/07/21 07:09:24;;;;;;;15.18;10.82;;;16.20;99.90;;;;;;5011173;28;20178;-76
2023/07/21 07:11:52;;;;;;;13.02;10.77;;;16.20;99.90;;;;;;5010746;28;20041;-80
2023/07/21 07:14:18;;;;;;;14.40;10.30;;;16.40;99.90;;;;;;5012045;28;20041;-77
2023/07/21 07:16:44;;;;;;;15.07;10.82;;;16.40;99.90;;;;;;5011936;28;20113;-76
2023/07/21 07:19:11;;;;;;;14.13;10.95;;;16.40;99.90;;;;;;5012017;28;20536;-79
2023/07/21 07:21:36;;;;;;;16.23;11.52;;;16.40;99.90;;;;;;5010738;28;20033;-80
2023/07/21 07:24:02;;;;;;;15.68;9.82;;;16.40;99.90;;;;;;5011621;28;20025;-80
2023/07/21 07:26:27;;;;;;;13.73;11.05;;;16.50;99.90;;;;;;5010352;28;20029;-80
2023/07/21 07:28:53;;;;;;;15.80;11.02;;;16.50;99.90;;;;;;5011661;28;20479;-76
2023/07/21 07:31:19;;;;;;;14.05;10.95;;;16.40;99.90;;;;;;5011413;28;20097;-80
2023/07/21 07:33:45;;;;;;;16.13;11.82;;;16.40;99.90;;;;;;5011579;28;20038;-80
2023/07/21 07:36:11;;;;;;;14.63;9.95;;;16.40;99.90;;;;;;5011818;28;20094;-76
2023/07/21 07:38:38;;;;;;;17.55;9.88;;;16.50;99.90;;;;;;5011427;28;20022;-80
2023/07/21 07:41:05;;;;;;;12.88;9.10;;;16.60;99.90;;;;;;5010624;28;20022;-76
2023/07/21 07:43:32;;;;;;;11.90;10.23;;;16.70;99.90;;;;;;5011247;28;20018;-76
2023/07/21 07:45:58;;;;;;;12.55;9.60;;;16.70;99.90;;;;;;5010431;28;20105;-76
2023/07/21 07:48:24;;;;;;;12.07;9.13;;;16.90;99.90;;;;;;5010947;28;20094;-75
2023/07/21 07:50:53;;;;;;;12.60;9.60;;;17.00;99.90;;;;;;5011593;28;20559;-79
2023/07/21 07:53:19;;;;;;;11.00;8.60;;;17.20;99.90;;;;;;5009749;28;20037;-76
2023/07/21 07:55:45;;;;;;;17.52;10.20;;;17.20;99.90;;;;;;5007207;28;20026;-80
2023/07/21 07:58:11;;;;;;;16.35;10.93;;;17.40;99.90;;;;;;5009742;28;20498;-76
2023/07/21 08:00:41;;;;;;;14.43;10.90;;;17.50;99.90;;;;;;5010132;28;20527;-79
2023/07/21 08:03:11;;;;;;;17.83;10.52;;;17.70;99.90;;;;;;5009718;28;20218;-76
2023/07/21 08:05:39;;;;;;;16.38;10.50;;;17.80;99.90;;;;;;5011169;28;20033;-76
2023/07/21 08:08:06;;;;;;;14.23;10.35;;;17.90;99.90;;;;;;5011053;28;20041;-80
2023/07/21 08:10:33;;;;;;;14.23;10.05;;;18.00;99.90;;;;;;5011306;28;20167;-79
2023/07/21 08:13:01;;;;;;;15.25;10.35;;;18.10;99.90;;;;;;5009579;28;20048;-75
2023/07/21 08:15:26;;;;;;;11.77;9.90;;;18.10;99.90;;;;;;5010002;28;20026;-79
2023/07/21 08:17:53;;;;;;;16.75;10.13;;;18.20;99.90;;;;;;5011048;28;20430;-76
2023/07/21 08:20:20;;;;;;;14.60;10.05;;;18.30;99.90;;;;;;5011037;28;20501;-79
2023/07/21 08:22:46;;;;;;;15.80;9.77;;;18.40;99.90;;;;;;5010423;28;20422;-80
2023/07/21 08:25:12;;;;;;;14.75;10.10;;;18.50;99.90;;;;;;5010859;28;20109;-76
2023/07/21 08:27:38;;;;;;;12.48;9.48;;;18.70;99.90;;;;;;5010726;28;20526;-76
2023/07/21 08:30:04;;;;;;;13.23;9.52;;;18.70;99.90;;;;;;5010881;28;20028;-76
2023/07/21 08:32:30;;;;;;;11.32;8.65;;;18.80;99.90;;;;;;5010419;28;20066;-76
2023/07/21 08:34:56;;;;;;;12.88;9.52;;;18.80;99.90;;;;;;5010593;28;20029;-76
2023/07/21 08:37:22;;;;;;;12.43;9.90;;;18.80;99.90;;;;;;5009268;28;20113;-76
2023/07/21 08:39:47;;;;;;;13.50;9.82;;;18.90;99.90;;;;;;5011088;28;20033;-76
2023/07/21 08:42:14;;;;;;;12.40;9.80;;;18.90;99.90;;;;;;5010904;28;20049;-79
2023/07/21 08:44:40;;;;;;;16.05;9.32;;;18.90;99.90;;;;;;5010836;28;20022;-80
2023/07/21 08:47:06;;;;;;;12.02;8.90;;;19.00;99.90;;;;;;5025501;28;20501;-76
2023/07/21 08:49:33;;;;;;;12.77;8.95;;;19.00;99.90;;;;;;5009435;28;20042;-79
2023/07/21 08:51:59;;;;;;;13.95;8.15;;;19.00;99.90;;;;;;5009047;28;20079;-79
2023/07/21 08:54:24;;;;;;;10.60;8.73;;;19.00;99.90;;;;;;5010662;28;20032;-76
2023/07/21 08:56:50;;;;;;;11.82;8.23;;;19.10;99.90;;;;;;5025684;28;20026;-80
2023/07/21 08:59:18;;;;;;;11.38;8.40;;;19.20;99.90;;;;;;5006287;28;20383;-76
2023/07/21 09:01:44;;;;;;;13.48;8.45;;;19.20;99.90;;;;;;4988996;28;20100;-76
2023/07/21 09:04:18;;;;;;;10.65;7.97;;;19.20;99.90;;;;;;4996758;28;20480;-76
2023/07/21 09:06:52;;;;;;;9.00;6.85;;;19.30;99.90;;;;;;5010240;28;20490;-79
2023/07/21 09:09:22;;;;;;;8.23;7.28;;;19.40;99.90;;;;;;5010305;28;20491;-76
2023/07/21 09:11:49;;;;;;;8.13;6.43;;;19.40;97.50;;;;;;5010100;28;20050;-79
2023/07/21 09:14:15;;;;;;;12.23;6.88;;;19.40;95.70;;;;;;5010331;28;20037;-79
2023/07/21 09:16:45;;;;;;;8.27;7.10;;;19.50;96.00;;;;;;5008727;28;20117;-80
2023/07/21 09:19:10;;;;;;;8.65;6.93;;;19.60;94.40;;;;;;5009900;28;20036;-80
2023/07/21 09:21:36;;;;;;;9.98;6.55;;;19.80;92.50;;;;;;5008938;28;20026;-77
2023/07/21 09:24:04;;;;;;;7.72;6.32;;;19.90;90.50;;;;;;5010278;28;20029;-80
2023/07/21 09:26:30;;;;;;;12.35;8.27;;;20.00;90.10;;;;;;5008545;28;20384;-76
2023/07/21 09:28:55;;;;;;;10.27;6.72;;;20.10;92.10;;;;;;5010105;28;20022;-76
2023/07/21 09:31:32;;;;;;;8.98;6.35;;;20.20;91.80;;;;;;5010068;28;20414;-80
2023/07/21 09:34:05;;;;;;;8.85;5.95;;;20.40;87.00;;;;;;5011080;28;20037;-76
2023/07/21 09:36:31;;;;;;;7.72;6.07;;;20.40;84.00;;;;;;5013401;28;20018;-79
2023/07/21 09:39:04;;;;;;;8.77;5.38;;;20.50;84.10;;;;;;5012253;28;20030;-76
2023/07/21 09:41:34;;;;;;;7.22;5.35;;;20.50;83.80;;;;;;5001299;28;20033;-80
2023/07/21 09:44:00;;;;;;;8.68;5.57;;;20.60;81.10;;;;;;5011928;28;20044;-79
2023/07/21 09:46:25;;;;;;;9.10;5.53;;;20.70;79.90;;;;;;5012090;28;20045;-76
2023/07/21 09:48:51;;;;;;;7.20;5.85;;;20.80;81.00;;;;;;5012914;28;20092;-76
2023/07/21 09:51:19;;;;;;;6.22;5.55;;;20.90;81.30;;;;;;5013526;28;20026;-77
2023/07/21 09:53:45;;;;;;;7.05;4.95;;;21.00;79.00;;;;;;5011689;28;20041;-80
2023/07/21 09:56:13;;;;;;;8.90;5.35;;;21.20;76.80;;;;;;5013362;28;20118;-76
2023/07/21 09:58:45;;;;;;;6.28;5.22;;;21.20;74.50;;;;;;5012937;28;20022;-80
2023/07/21 10:01:12;;;;;;;9.15;5.10;;;21.50;74.90;;;;;;5013223;28;20033;-79
2023/07/21 10:03:38;;;;;;;6.22;5.57;;;21.70;73.50;;;;;;5000711;28;20033;-76
2023/07/21 10:06:06;;;;;;;6.10;4.38;;;21.90;72.10;;;;;;5013063;28;20028;-79
2023/07/21 10:08:35;;;;;;;8.25;4.35;;;22.20;71.80;;;;;;5011398;28;20032;-76
2023/07/21 10:11:02;;;;;;;4.60;4.20;;;22.20;67.30;;;;;;5011799;28;20474;-79
2023/07/21 10:13:29;;;;;;;8.55;5.07;;;22.30;67.80;;;;;;5012674;28;20033;-79
2023/07/21 10:16:01;;;;;;;3.95;3.65;;;22.30;68.10;;;;;;5011745;28;20109;-76
2023/07/21 10:18:26;;;;;;;6.85;4.72;;;22.10;67.50;;;;;;5011548;28;20026;-79
2023/07/21 10:20:56;;;;;;;4.63;3.97;;;22.00;67.30;;;;;;5012896;28;20118;-76
2023/07/21 10:23:34;;;;;;;6.85;4.15;;;22.10;68.20;;;;;;5012519;28;20560;-76
2023/07/21 10:26:02;;;;;;;5.78;5.05;;;22.20;67.70;;;;;;5012786;28;20493;-79
2023/07/21 10:28:43;;;;;;;6.70;4.30;;;22.10;67.80;;;;;;5008251;28;20502;-79
2023/07/21 10:31:24;;;;;;;4.30;3.90;;;22.10;67.60;;;;;;5008403;28;20030;-79
2023/07/21 10:34:14;;;;;;;7.28;4.68;;;22.30;68.20;;;;;;5008046;28;20041;-76
2023/07/21 10:36:51;;;;;;;7.75;7.03;;;22.30;67.20;;;;;;4996297;28;20491;-79
2023/07/21 10:39:28;;;;;;;16.15;10.88;;;22.40;67.50;;;;;;5007194;28;20479;-76
2023/07/21 10:41:58;;;;;;;7.20;4.82;;;22.60;66.90;;;;;;5012555;28;20022;-79
2023/07/21 10:44:24;;;;;;;7.70;4.88;;;22.40;65.00;;;;;;5011021;28;20030;-80
2023/07/21 10:46:51;;;;;;;4.22;3.80;;;22.50;65.10;;;;;;5011277;28;20022;-76
2023/07/21 10:49:18;;;;;;;4.88;2.70;;;22.70;63.90;;;;;;5008698;28;20042;-79
2023/07/21 10:51:46;;;;;;;2.75;2.42;;;22.50;61.20;;;;;;5003211;28;20030;-76
2023/07/21 10:54:13;;;;;;;3.33;2.60;;;22.70;59.90;;;;;;5012100;28;20030;-76
2023/07/21 10:56:47;;;;;;;3.97;2.72;;;23.00;60.50;;;;;;5012524;28;20034;-79
2023/07/21 10:59:16;;;;;;;3.80;3.10;;;22.80;59.70;;;;;;5012249;28;20053;-76
2023/07/21 11:01:45;;;;;;;2.72;2.35;;;22.80;58.50;;;;;;5010727;28;20026;-76
2023/07/21 11:04:13;;;;;;;2.90;2.03;;;22.90;58.10;;;;;;5007552;28;20554;-79
2023/07/21 11:06:47;;;;;;;2.55;1.98;;;23.00;56.90;;;;;;5004900;28;20429;-80
2023/07/21 11:09:13;;;;;;;2.28;2.00;;;23.20;57.10;;;;;;5012094;28;20086;-77
2023/07/21 11:11:44;;;;;;;2.00;1.90;;;23.50;55.50;;;;;;5011782;28;20471;-77
2023/07/21 11:14:14;;;;;;;2.00;1.90;;;23.70;54.90;;;;;;5012138;28;20029;-76
2023/07/21 11:16:59;;;;;;;2.40;1.98;;;23.80;54.00;;;;;;5011644;28;20026;-76
2023/07/21 11:19:30;;;;;;;3.63;2.40;;;24.00;53.90;;;;;;5012035;28;20030;-80
2023/07/21 11:21:56;;;;;;;2.45;2.25;;;24.00;55.60;;;;;;5010556;28;20018;-79
2023/07/21 11:24:26;;;;;;;2.08;1.98;;;24.00;54.60;;;;;;5010471;28;20485;-76
2023/07/21 11:27:02;;;;;;;2.47;2.20;;;24.10;54.60;;;;;;5011774;28;20045;-77
2023/07/21 11:29:31;;;;;;;2.55;2.10;;;24.30;54.50;;;;;;5011576;28;20029;-80
2023/07/21 11:31:57;;;;;;;4.22;2.10;;;24.10;52.30;;;;;;5010477;28;20475;-77
2023/07/21 11:34:25;;;;;;;2.20;2.00;;;24.20;53.10;;;;;;5011537;28;20070;-76
2023/07/21 11:37:00;;;;;;;3.58;2.13;;;24.40;54.20;;;;;;5011811;28;20033;-79
2023/07/21 11:39:27;;;;;;;2.70;2.08;;;24.60;54.10;;;;;;5011490;28;20101;-80
2023/07/21 11:41:54;;;;;;;2.22;1.88;;;24.70;53.40;;;;;;5011779;28;20466;-79
2023/07/21 11:44:27;;;;;;;1.60;1.50;;;24.60;51.30;;;;;;5010177;28;20037;-77
2023/07/21 11:47:12;;;;;;;2.30;2.05;;;24.60;50.00;;;;;;5011577;28;20074;-79
2023/07/21 11:49:44;;;;;;;3.35;2.05;;;24.60;50.10;;;;;;4998232;28;20090;-76
2023/07/21 11:52:10;;;;;;;2.28;1.90;;;24.60;49.50;;;;;;5011220;28;20037;-77
2023/07/21 11:54:42;;;;;;;1.77;1.67;;;24.60;49.20;;;;;;5011504;28;20037;-77
2023/07/21 11:57:09;;;;;;;1.97;1.77;;;24.80;50.00;;;;;;5010490;28;20022;-79
2023/07/21 11:59:35;;;;;;;3.75;2.38;;;25.00;51.20;;;;;;5005790;28;20033;-80
2023/07/21 12:02:04;;;;;;;2.95;1.90;;;25.00;48.90;;;;;;5008430;28;20475;-76
2023/07/21 12:04:30;;;;;;;2.50;1.88;;;24.90;49.10;;;;;;5002475;28;20022;-77
2023/07/21 12:06:56;;;;;;;2.05;1.95;;;25.00;49.80;;;;;;5011271;28;20036;-77
2023/07/21 12:09:22;;;;;;;1.85;1.75;;;24.90;49.40;;;;;;5011108;28;20025;-76
2023/07/21 12:11:48;;;;;;;3.85;2.22;;;25.10;49.80;;;;;;5010875;28;20129;-80
2023/07/21 12:14:14;;;;;;;3.40;2.10;;;25.20;49.60;;;;;;5009876;28;20458;-76
2023/07/21 12:16:39;;;;;;;4.18;1.80;;;25.20;50.20;;;;;;5011097;28;20026;-80
2023/07/21 12:19:05;;;;;;;2.58;2.28;;;25.20;50.20;;;;;;5010984;28;20109;-80
2023/07/21 12:21:32;;;;;;;3.42;2.25;;;25.00;49.50;;;;;;5009374;28;20149;-79
2023/07/21 12:23:58;;;;;;;3.40;2.53;;;24.80;49.20;;;;;;5010802;28;20030;-76
2023/07/21 12:26:24;;;;;;;2.08;1.90;;;24.80;48.90;;;;;;5009505;28;20022;-76
2023/07/21 12:28:51;;;;;;;2.97;2.10;;;24.70;50.20;;;;;;5005914;28;20078;-80
2023/07/21 12:31:17;;;;;;;2.40;2.15;;;24.70;51.00;;;;;;4995467;28;20113;-80
2023/07/21 12:33:44;;;;;;;3.22;2.00;;;24.50;51.60;;;;;;4993970;28;20487;-77
2023/07/21 12:36:19;;;;;;;2.42;2.25;;;24.50;52.80;;;;;;5001716;28;20096;-77
2023/07/21 12:38:46;;;;;;;2.38;2.17;;;24.60;52.50;;;;;;4992996;28;20026;-77
2023/07/21 12:41:12;;;;;;;3.38;2.30;;;24.60;53.20;;;;;;5005738;28;20018;-76